• Join FlightAware (Why Join?)
  • Login
  • US Flag 
05:21PM EDT


 

Airport Tracker/Info


-or-


 

Live Flight TrackerFlight Track Log ✈ BJS439 ✈ 15-Apr-2013 ✈ KPBI - KJYO

Flight Track Log - Related Links

Times and Time Zones

All times are in EDT time to prevent confusion due to time zone crossing. See the BJS439 flight status page for this flight to view local times or setup timezone preferences in your user account.

Time Position Orientation Groundspeed Altitude Reporting Facility
EDT Latitude Longitude Course Direction KTS MPH feet Rate Location/Type
09:23AM 26.7564 -80.0183 340° North 232 267 6,500  Level Miami Center
09:24AM 26.7819 -80.0889 292° West 251 289 7,100 1,140 Climbing Miami Center
09:25AM 26.8094 -80.1664 292° West 266 306 8,800 2,400 Climbing Miami Center
09:27AM 27.0350 -80.4157 334° Northwest  Level FlightAware Approximate
09:27AM 26.8908 -80.3433 297° West 309 356 14,400  Level Miami Center
09:28AM 27.1445 -80.4645 340° North  Level FlightAware Approximate
09:28AM 26.9797 -80.3856 337° Northwest 333 383 17,300  Level Miami Center
09:29AM 27.0769 -80.4283 339° North 342 394 18,900 1,200 Climbing Miami Center
09:30AM 27.1803 -80.4711 340° North 372 428 19,800 1,620 Climbing Miami Center
09:31AM 27.2875 -80.5164 339° North 394 453 22,200 2,340 Climbing Miami Center
09:32AM 27.3972 -80.5622 340° North 407 468 24,500 2,220 Climbing Miami Center
09:33AM 27.5067 -80.6078 340° North 414 476 26,700 1,860 Climbing Miami Center
09:34AM 27.6222 -80.6561 340° North 430 495 28,300 1,740 Climbing Miami Center
09:35AM 27.7358 -80.7044 339° North 430 495 30,200 1,620 Climbing Miami Center
09:36AM 27.8267 -80.7428 340° North 430 495 31,600 1,620 Climbing Miami Center
09:37AM 27.9567 -80.7942 341° North 435 501 33,500 1,800 Climbing Miami Center
09:38AM 28.0681 -80.8403 340° North 435 501 35,300 1,740 Climbing Miami Center
09:39AM 28.1733 -80.8842 340° North 417 480 37,000 1,440 Climbing Miami Center
09:40AM 28.2783 -80.9303 339° North 409 471 38,200 1,020 Climbing Miami Center
09:41AM 28.3814 -80.9742 339° North 403 464 39,100 900 Climbing Miami Center
09:42AM 28.4867 -81.0181 340° North 403 464 40,000 900 Climbing Miami Center
09:43AM 28.5897 -81.0622 339° North 403 464 40,900 540 Climbing Miami Center
09:44AM 28.6758 -81.1061 336° Northwest 409 471 41,000  Climbing Jacksonville Center
09:45AM 28.7911 -81.1394 346° North 416 479 41,000  Level Jacksonville Center
09:47AM 29.0278 -81.1947 348° North 421 484 41,000  Level Jacksonville Center
09:48AM 29.1428 -81.2211 349° North 421 484 41,000  Level Jacksonville Center
09:49AM 29.2603 -81.2503 348° North 427 491 41,000  Level Jacksonville Center
09:50AM 29.3753 -81.2769 349° North 427 491 41,000  Level Jacksonville Center
09:51AM 29.5069 -81.2889 355° North 427 491 41,000  Level Jacksonville Center
09:52AM 29.6300 -81.2822 North 422 486 41,000  Level Jacksonville Center
09:53AM 29.7553 -81.2731 North 433 498 41,000  Level Jacksonville Center
09:54AM 29.8803 -81.2636 North 444 511 41,000  Level Jacksonville Center
09:55AM 30.0075 -81.2592 North 449 517 41,000  Level Jacksonville Center
09:56AM 30.1328 -81.2497 North 449 517 41,000  Level Jacksonville Center
09:57AM 30.2581 -81.2428 North 449 517 41,000  Level Jacksonville Center
09:58AM 30.3831 -81.2333 North 444 511 41,000  Level Jacksonville Center
09:59AM 30.5103 -81.2264 North 444 511 41,000  Level Jacksonville Center
10:00AM 30.6333 -81.2194 North 444 511 41,000  Level Jacksonville Center
10:01AM 30.7564 -81.2100 North 439 505 41,000  Level Jacksonville Center
10:02AM 30.8839 -81.2053 North 439 505 41,000  Level Jacksonville Center
10:03AM 31.0069 -81.1958 North 439 505 41,000  Level Jacksonville Center
10:04AM 31.1217 -81.1867 North 439 505 41,000  Level Jacksonville Center
10:05AM 31.2489 -81.1819 North 439 505 41,000  Level Jacksonville Center
10:06AM 31.3797 -81.1356 17° North 448 516 41,000  Level Jacksonville Center
10:07AM 31.4853 -81.0606 31° Northeast 467 537 41,000  Level Jacksonville Center
10:08AM 31.6114 -80.9728 31° Northeast 484 557 41,000  Level Jacksonville Center
10:09AM 31.7167 -80.8972 31° Northeast 491 565 41,000  Level Jacksonville Center
10:10AM 31.8467 -80.8114 29° Northeast 485 558 41,000  Level Jacksonville Center
10:11AM 31.9689 -80.7572 21° North 465 535 41,000  Level Jacksonville Center
10:12AM 32.0808 -80.7031 22° Northeast 470 541 41,000  Level Jacksonville Center
10:13AM 32.2114 -80.6433 21° North 460 529 41,000  Level Jacksonville Center
10:14AM 32.3356 -80.5839 22° Northeast 472 543 41,000  Level Jacksonville Center
10:15AM 32.4575 -80.5242 22° Northeast 469 540 41,000  Level Jacksonville Center
10:16AM 32.5817 -80.4642 22° Northeast 468 539 41,000  Level Jacksonville Center
10:17AM 32.7036 -80.4067 22° Northeast 469 540 41,000  Level Jacksonville Center
10:18AM 32.8258 -80.3489 22° Northeast 469 540 41,000  Level Jacksonville Center
10:19AM 32.9436 -80.2911 22° Northeast 482 555 41,000  Level Jacksonville Center
10:20AM 33.0653 -80.2306 23° Northeast 482 555 41,000  Level Jacksonville Center
10:21AM 33.1997 -80.1669 22° Northeast 483 556 41,000  Level Jacksonville Center
10:22AM 33.2989 -80.1192 22° Northeast 483 556 41,000  Level Jacksonville Center
10:23AM 33.4433 -80.0500 22° Northeast 473 544 41,000  Level Jacksonville Center
10:24AM 33.5425 -80.0019 22° Northeast 467 537 41,000  Level Jacksonville Center
10:25AM 33.6869 -79.9297 23° Northeast 467 537 41,000  Level Jacksonville Center
10:26AM 33.7817 -79.8842 22° Northeast 467 537 41,000  Level Jacksonville Center
10:27AM 33.9261 -79.8092 23° Northeast 467 537 41,000  Level Jacksonville Center
10:28AM 34.0189 -79.7658 21° North 462 532 41,000  Level Jacksonville Center
10:29AM 34.1611 -79.6953 22° Northeast 462 532 41,000  Level Jacksonville Center
10:30AM 34.2722 -79.6361 24° Northeast 450 518 41,000  Level Jacksonville Center
10:31AM 34.4169 -79.5594 24° Northeast 452 520 41,000  Level Washington Center
10:32AM 34.5336 -79.4994 23° Northeast 452 520 41,000  Level Washington Center
10:33AM 34.6525 -79.4369 23° Northeast 452 520 41,000  Level Washington Center
10:34AM 34.7672 -79.3742 24° Northeast 452 520 41,000  Level Washington Center
10:35AM 34.8839 -79.3114 24° Northeast 452 520 41,000  Level Washington Center
10:36AM 35.0028 -79.2458 24° Northeast 452 520 41,000  Level Washington Center
10:37AM 35.1194 -79.1850 23° Northeast 452 520 41,000  Level Washington Center
10:38AM 35.2381 -79.1217 24° Northeast 452 520 41,000  Level Washington Center
10:39AM 35.3589 -79.0558 24° Northeast 452 520 41,000 -420 Level Washington Center
10:40AM 35.4756 -78.9919 24° Northeast 452 520 40,200 -960 Descending Washington Center
10:41AM 35.5922 -78.9278 24° Northeast 452 520 39,100 -1,200 Descending Washington Center
10:42AM 35.7064 -78.8661 24° Northeast 452 520 37,800 -1,260 Descending Washington Center
10:43AM 35.8272 -78.7969 25° Northeast 442 509 36,600 -960 Descending Washington Center
10:44AM 35.9417 -78.7347 24° Northeast 437 503 35,900 -1,500 Descending Washington Center
10:45AM 36.0561 -78.6700 25° Northeast 443 510 33,600 -2,640 Descending Washington Center
10:46AM 36.1639 -78.6097 24° Northeast 443 510 30,700 -3,000 Descending Washington Center
10:47AM 36.2678 -78.5494 25° Northeast 428 493 27,700 -1,860 Descending Washington Center
10:48AM 36.3714 -78.4914 24° Northeast 415 478 27,000 -360 Descending Washington Center
10:49AM 36.4750 -78.4333 24° Northeast 404 465 27,000  Level Washington Center
10:50AM 36.5786 -78.3750 24° Northeast 404 465 27,000  Level Washington Center
10:51AM 36.6800 -78.3164 25° Northeast 404 465 27,000  Level Washington Center
10:52AM 36.7836 -78.2578 24° Northeast 404 465 27,000 -240 Level Washington Center
10:53AM 36.8872 -78.1967 25° Northeast 404 465 26,600 -900 Descending Washington Center
10:54AM 36.9864 -78.1428 23° Northeast 398 458 25,200 -1,500 Descending Washington Center
10:55AM 37.0878 -78.0836 25° Northeast 392 451 23,700 -1,500 Descending Washington Center
10:56AM 37.1850 -78.0267 25° Northeast 392 451 22,300 -900 Descending Washington Center
10:57AM 37.2861 -77.9672 25° Northeast 392 451 22,000 -180 Descending Washington Center
10:58AM 37.3875 -77.9103 24° Northeast 392 451 22,000  Level Washington Center
10:59AM 37.4867 -77.8531 25° Northeast 392 451 22,000  Level Washington Center
11:00AM 37.5858 -77.7958 25° Northeast 387 445 22,000 -120 Level Washington Center
11:01AM 37.6847 -77.7358 26° Northeast 387 445 21,800 -720 Descending Washington Center
11:02AM 37.7839 -77.6781 25° Northeast 387 445 20,600 -2,040 Descending Washington Center
11:03AM 37.8828 -77.6228 24° Northeast 382 440 17,800 -3,000 Descending Washington Center
11:04AM 37.9778 -77.5650 26° Northeast 387 445 14,700 -2,580 Descending Washington Center
11:05AM 38.0556 -77.5194 25° Northeast 365 420 12,700 -1,860 Descending Washington Center
11:06AM 38.1292 -77.4764 25° Northeast 324 373 11,000 -1,380 Descending Washington Center
11:07AM 38.2072 -77.4308 25° Northeast 308 354 10,000 -900 Descending Washington Center
11:08AM 38.2842 -77.4303 360° North 280 322 9,300 -1,200 Descending Washington Center
11:09AM 38.3522 -77.4900 325° Northwest 254 292 7,600 -1,740 Descending Washington Center
11:10AM 38.4286 -77.5422 332° Northwest 282 325 5,900 -1,680 Descending Washington Center
11:11AM 38.4986 -77.5944 330° Northwest 287 330 4,300 -960 Descending Washington Center
11:12AM 38.5625 -77.6389 331° Northwest 281 323 4,000 -180 Descending Washington Center
11:13AM 38.6203 -77.6669 339° North 246 283 4,000  Level Washington Center
11:14AM 38.6822 -77.6953 340° North 235 270 4,000  Level Washington Center
11:16AM 38.8167 -77.7500 342° North 227 261 4,000 -300 Level Potomac TRACON
11:17AM 38.8833 -77.7500 360° North 225 259 3,200 -540 Descending Potomac TRACON
11:18AM 38.9500 -77.7500 360° North 213 245 3,000 -120 Descending Potomac TRACON
11:19AM 39.0000 -77.7500 360° North 230 265 3,000 -180 Level Potomac TRACON
11:20AM 39.0667 -77.7167 21° North 237 273 2,700 -540 Descending Potomac TRACON
11:21AM 39.0833 -77.6500 72° East 206 237 2,000 -480 Descending Potomac TRACON
11:22AM 39.0667 -77.6000 113° Southeast 175 201 1,800 -300 Descending Potomac TRACON
11:23AM 39.0833 -77.5500 67° East 163 188 1,500 -360 Descending Potomac TRACON
11:24AM 39.1167 -77.5500 360° North 150 173 1,100 -480 Descending Potomac TRACON
11:25AM 39.0833 -77.5500 180° South 132 152 600 -300 Descending Potomac TRACON
11:26AM 39.0667 -77.5500 180° South 95 109 600  Level Potomac TRACON
11:28AM 39.0780 -77.5575 180° South  Level Estimated
11:35AM 39.0780 -77.5575 180° South  Level Estimated
11:36AM 39.0780 -77.5575 180° South  Level Estimated